createdAt,value
2018-10-09T00:00:23.430Z,100795.23
2018-10-09T00:02:51.372Z,100798.25
2018-10-09T00:05:18.315Z,100794.63
2018-10-09T00:07:46.257Z,100792.80
2018-10-09T00:10:14.241Z,100793.81
2018-10-09T00:12:41.211Z,100786.84
2018-10-09T00:15:08.175Z,100788.13
2018-10-09T00:17:35.201Z,100790.53
2018-10-09T00:20:02.191Z,100788.20
2018-10-09T00:22:29.194Z,100777.73
2018-10-09T00:24:56.198Z,100787.37
2018-10-09T00:27:23.124Z,100797.45
2018-10-09T00:29:50.054Z,100791.28
2018-10-09T00:32:17.201Z,100789.34
2018-10-09T00:34:44.107Z,100786.50
2018-10-09T00:37:11.086Z,100778.21
2018-10-09T00:39:38.038Z,100783.12
2018-10-09T00:42:04.926Z,100780.00
2018-10-09T00:44:31.877Z,100778.52
2018-10-09T00:46:59.837Z,100777.02
2018-10-09T00:49:26.749Z,100785.14
2018-10-09T00:51:53.716Z,100786.56
2018-10-09T00:54:20.586Z,100781.63
2018-10-09T00:56:47.553Z,100773.05
2018-10-09T00:59:17.610Z,100778.97
2018-10-09T01:01:44.570Z,100763.32
2018-10-09T01:04:11.534Z,100764.80
2018-10-09T01:06:38.422Z,100763.55
2018-10-09T01:09:06.482Z,100758.67
2018-10-09T01:11:33.365Z,100761.23
2018-10-09T01:16:40.009Z,100753.92
2018-10-09T01:19:06.854Z,100759.45
2018-10-09T01:21:33.938Z,100753.73
2018-10-09T01:24:01.801Z,100748.98
2018-10-09T01:26:28.654Z,100744.94
2018-10-09T01:28:55.591Z,100744.84
2018-10-09T01:31:22.542Z,100746.73
2018-10-09T01:33:49.513Z,100747.98
2018-10-09T01:36:16.427Z,100751.38
2018-10-09T01:38:43.366Z,100760.19
2018-10-09T01:41:10.214Z,100755.42
2018-10-09T01:43:37.158Z,100758.62
2018-10-09T01:46:04.101Z,100766.36
2018-10-09T01:48:31.987Z,100764.64
2018-10-09T01:50:58.917Z,100761.36
2018-10-09T01:53:25.897Z,100759.17
2018-10-09T01:55:53.882Z,100752.94
2018-10-09T01:58:20.801Z,100752.73
2018-10-09T02:00:47.723Z,100749.58
2018-10-09T02:03:14.661Z,100745.30
2018-10-09T02:05:41.609Z,100747.77
2018-10-09T02:08:08.550Z,100744.69
2018-10-09T02:10:35.413Z,100733.28
2018-10-09T02:13:02.354Z,100738.69
2018-10-09T02:15:29.283Z,100741.66
2018-10-09T02:17:56.230Z,100752.42
2018-10-09T02:20:23.173Z,100763.47
2018-10-09T02:22:50.115Z,100762.45
2018-10-09T02:25:16.973Z,100761.83
2018-10-09T02:27:43.906Z,100762.78
2018-10-09T02:30:10.859Z,100769.70
2018-10-09T02:32:37.794Z,100774.92
2018-10-09T02:35:04.922Z,100776.50
2018-10-09T02:37:31.791Z,100778.08
2018-10-09T02:39:59.680Z,100784.42
2018-10-09T02:42:26.608Z,100778.30
2018-10-09T02:44:53.569Z,100774.16
2018-10-09T02:47:20.502Z,100778.61
2018-10-09T02:49:48.414Z,100773.51
2018-10-09T02:52:15.314Z,100780.25
2018-10-09T02:54:42.289Z,100775.39
2018-10-09T02:57:09.219Z,100774.42
2018-10-09T02:59:36.135Z,100773.51
2018-10-09T03:02:03.089Z,100769.98
2018-10-09T03:04:30.054Z,100777.73
2018-10-09T03:06:56.970Z,100776.27
2018-10-09T03:09:24.851Z,100774.83
2018-10-09T03:11:51.781Z,100780.04
2018-10-09T03:14:18.734Z,100783.72
2018-10-09T03:16:45.565Z,100784.74
2018-10-09T03:19:12.510Z,100790.36
2018-10-09T03:21:39.370Z,100788.92
2018-10-09T03:24:06.433Z,100786.97
2018-10-09T03:26:33.353Z,100787.83
2018-10-09T03:29:00.290Z,100777.59
2018-10-09T03:31:27.245Z,100789.91
2018-10-09T03:33:54.185Z,100782.18
2018-10-09T03:36:21.126Z,100785.19
2018-10-09T03:38:47.969Z,100779.44
2018-10-09T03:41:14.922Z,100778.92
2018-10-09T03:43:41.937Z,100778.30
2018-10-09T03:46:08.834Z,100779.19
2018-10-09T03:48:36.274Z,100781.86
2018-10-09T03:51:03.226Z,100783.34
2018-10-09T03:53:30.178Z,100781.28
2018-10-09T03:55:57.194Z,100789.09
2018-10-09T03:58:24.137Z,100791.45
2018-10-09T04:00:50.998Z,100790.34
2018-10-09T04:03:17.954Z,100792.61
2018-10-09T04:05:44.897Z,100795.44
2018-10-09T04:08:11.833Z,100801.52
2018-10-09T04:10:38.766Z,100800.94
2018-10-09T04:13:05.736Z,100799.84
2018-10-09T04:15:33.061Z,100800.05
2018-10-09T04:18:00.055Z,100803.13
2018-10-09T04:20:26.954Z,100796.73
2018-10-09T04:22:53.901Z,100798.27
2018-10-09T04:25:20.851Z,100797.20
2018-10-09T04:27:47.786Z,100792.47
2018-10-09T04:30:14.741Z,100794.97
2018-10-09T04:32:41.673Z,100795.20
2018-10-09T04:35:08.605Z,100800.89
2018-10-09T04:37:35.466Z,100801.80
2018-10-09T04:40:02.411Z,100800.64
2018-10-09T04:42:29.298Z,100801.50
2018-10-09T04:44:56.197Z,100805.96
2018-10-09T04:47:23.157Z,100804.77
2018-10-09T04:49:50.126Z,100814.94
2018-10-09T04:52:17.034Z,100817.70
2018-10-09T04:54:43.978Z,100820.61
2018-10-09T04:57:11.018Z,100823.77
2018-10-09T04:59:38.026Z,100820.39
2018-10-09T05:02:04.910Z,100825.73
2018-10-09T05:04:31.762Z,100830.36
2018-10-09T05:06:58.746Z,100831.69
2018-10-09T05:09:25.655Z,100829.06
2018-10-09T05:11:52.602Z,100830.14
2018-10-09T05:14:19.574Z,100836.19
2018-10-09T05:16:46.526Z,100833.03
2018-10-09T05:19:13.438Z,100834.92
2018-10-09T05:21:40.381Z,100835.37
2018-10-09T05:24:07.314Z,100837.48
2018-10-09T05:26:34.274Z,100842.43
2018-10-09T05:29:01.299Z,100844.74
2018-10-09T05:31:28.185Z,100852.88
2018-10-09T05:33:55.199Z,100853.30
2018-10-09T05:36:22.183Z,100852.03
2018-10-09T05:38:49.093Z,100845.88
2018-10-09T05:41:16.026Z,100844.03
2018-10-09T05:43:42.898Z,100846.47
2018-10-09T05:46:09.821Z,100848.53
2018-10-09T05:48:36.879Z,100847.07
2018-10-09T05:51:03.846Z,100841.95
2018-10-09T05:53:30.770Z,100845.06
2018-10-09T05:55:57.738Z,100843.07
2018-10-09T05:58:24.663Z,100850.36
2018-10-09T06:00:51.627Z,100846.48
2018-10-09T06:03:18.554Z,100840.31
2018-10-09T06:05:45.508Z,100846.98
2018-10-09T06:08:12.811Z,100853.31
2018-10-09T06:10:39.691Z,100854.03
2018-10-09T06:13:06.621Z,100849.23
2018-10-09T06:15:33.638Z,100855.33
2018-10-09T06:18:00.533Z,100855.11
2018-10-09T06:20:27.469Z,100855.47
2018-10-09T06:22:54.417Z,100857.73
2018-10-09T06:25:21.726Z,100861.51
2018-10-09T06:27:48.654Z,100853.76
2018-10-09T06:30:15.550Z,100857.87
2018-10-09T06:32:42.498Z,100858.46
2018-10-09T06:35:09.486Z,100855.20
2018-10-09T06:37:36.390Z,100849.92
2018-10-09T06:40:03.393Z,100860.34
2018-10-09T06:42:30.297Z,100863.21
2018-10-09T06:44:57.227Z,100864.52
2018-10-09T06:47:24.252Z,100865.67
2018-10-09T06:49:51.209Z,100868.34
2018-10-09T06:52:19.594Z,100858.89
2018-10-09T06:54:46.614Z,100855.09
2018-10-09T06:57:13.474Z,100857.29
2018-10-09T06:59:40.459Z,100860.95
2018-10-09T07:02:07.360Z,100859.44
2018-10-09T07:04:34.290Z,100855.98
2018-10-09T07:07:01.219Z,100855.14
2018-10-09T07:09:28.222Z,100853.88
2018-10-09T07:11:55.115Z,100857.37
2018-10-09T07:14:22.055Z,100854.72
2018-10-09T07:16:49.042Z,100856.02
2018-10-09T07:19:15.982Z,100864.02
2018-10-09T07:21:42.954Z,100868.78
2018-10-09T07:24:09.835Z,100864.18
2018-10-09T07:26:36.770Z,100870.38
2018-10-09T07:29:03.631Z,100875.20
2018-10-09T07:31:30.600Z,100878.48
2018-10-09T07:33:57.512Z,100877.92
2018-10-09T07:36:24.463Z,100882.18
2018-10-09T07:38:51.411Z,100887.06
2018-10-09T07:41:18.338Z,100891.61
2018-10-09T07:43:45.222Z,100898.42
2018-10-09T07:46:12.061Z,100897.09
2018-10-09T07:48:39.098Z,100904.39
2018-10-09T07:51:06.215Z,100908.19
2018-10-09T07:53:33.183Z,100909.23
2018-10-09T07:56:00.116Z,100907.19
2018-10-09T07:58:27.075Z,100905.50
2018-10-09T08:00:53.900Z,100913.16
2018-10-09T08:03:20.781Z,100913.81
2018-10-09T08:05:47.889Z,100906.96
2018-10-09T08:08:15.139Z,100916.60
2018-10-09T08:10:42.039Z,100908.11
2018-10-09T08:13:08.950Z,100905.30
2018-10-09T08:15:35.885Z,100911.42
2018-10-09T08:18:03.770Z,100913.38
2018-10-09T08:20:30.691Z,100911.44
2018-10-09T08:22:57.683Z,100909.80
2018-10-09T08:25:24.596Z,100908.16
2018-10-09T08:27:51.565Z,100906.85
2018-10-09T08:30:18.470Z,100908.16
2018-10-09T08:32:45.491Z,100911.19
2018-10-09T08:35:12.362Z,100914.86
2018-10-09T08:37:39.313Z,100916.64
2018-10-09T08:40:07.276Z,100922.27
2018-10-09T08:42:34.178Z,100922.86
2018-10-09T08:45:01.089Z,100922.48
2018-10-09T08:47:28.008Z,100923.91
2018-10-09T08:49:54.851Z,100922.33
2018-10-09T08:52:21.827Z,100916.98
2018-10-09T08:54:48.767Z,100910.63
2018-10-09T08:57:16.174Z,100907.70
2018-10-09T08:59:43.058Z,100912.95
2018-10-09T09:02:11.007Z,100910.14
2018-10-09T09:04:37.967Z,100909.00
2018-10-09T09:07:05.450Z,100909.31
2018-10-09T09:09:32.362Z,100918.06
2018-10-09T09:11:59.298Z,100917.87
2018-10-09T09:14:26.242Z,100913.04
2018-10-09T09:16:53.191Z,100913.95
2018-10-09T09:19:20.139Z,100917.52
2018-10-09T09:21:47.135Z,100916.62
2018-10-09T09:24:14.031Z,100919.86
2018-10-09T09:26:41.366Z,100914.84
2018-10-09T09:29:08.225Z,100916.64
2018-10-09T09:31:35.223Z,100913.27
2018-10-09T09:34:02.115Z,100903.88
2018-10-09T09:36:29.668Z,100900.91
2018-10-09T09:38:57.532Z,100905.63
2018-10-09T09:41:24.394Z,100899.86
2018-10-09T09:43:51.322Z,100906.59
2018-10-09T09:46:18.555Z,100908.31
2018-10-09T09:48:45.322Z,100899.22
2018-10-09T09:51:12.267Z,100891.72
2018-10-09T09:53:39.218Z,100896.04
2018-10-09T09:56:06.215Z,100897.34
2018-10-09T09:58:33.320Z,100895.34
2018-10-09T10:01:05.759Z,100893.31
2018-10-09T10:03:32.633Z,100888.33
2018-10-09T10:05:59.575Z,100882.24
2018-10-09T10:08:26.513Z,100876.21
2018-10-09T10:10:53.459Z,100884.47
2018-10-09T10:13:20.391Z,100877.47
2018-10-09T10:15:47.418Z,100876.01
2018-10-09T10:18:16.007Z,100869.10
2018-10-09T10:20:42.889Z,100870.73
2018-10-09T10:23:10.739Z,100873.52
2018-10-09T10:25:38.611Z,100866.16
2018-10-09T10:28:05.892Z,100864.02
2018-10-09T10:30:32.806Z,100860.56
2018-10-09T10:32:59.743Z,100862.34
2018-10-09T10:35:26.681Z,100857.23
2018-10-09T10:37:53.839Z,100854.91
2018-10-09T10:40:20.782Z,100848.13
2018-10-09T10:42:47.728Z,100846.20
2018-10-09T10:45:14.679Z,100844.58
2018-10-09T10:47:41.672Z,100849.97
2018-10-09T10:50:08.563Z,100848.24
2018-10-09T10:52:35.508Z,100845.34
2018-10-09T10:55:02.461Z,100840.27
2018-10-09T10:57:29.294Z,100836.73
2018-10-09T10:59:56.266Z,100834.75
2018-10-09T11:02:23.182Z,100836.59
2018-10-09T11:04:50.143Z,100832.47
2018-10-09T11:07:17.083Z,100826.32
2018-10-09T11:09:44.014Z,100826.52
2018-10-09T11:12:10.862Z,100828.15
2018-10-09T11:14:37.876Z,100820.86
2018-10-09T11:17:04.767Z,100822.08
2018-10-09T11:19:31.690Z,100820.11
2018-10-09T11:22:00.591Z,100810.14
2018-10-09T11:24:27.547Z,100806.22
2018-10-09T11:26:54.479Z,100806.48
2018-10-09T11:29:21.472Z,100797.25
2018-10-09T11:31:48.367Z,100798.67
2018-10-09T11:34:15.222Z,100805.89
2018-10-09T11:36:42.150Z,100802.92
2018-10-09T11:39:09.391Z,100803.23
2018-10-09T11:41:36.243Z,100800.37
2018-10-09T11:44:03.091Z,100793.78
2018-10-09T11:46:30.957Z,100792.66
2018-10-09T11:48:57.907Z,100784.62
2018-10-09T11:51:24.839Z,100782.80
2018-10-09T11:53:52.737Z,100786.13
2018-10-09T11:56:19.667Z,100780.88
2018-10-09T11:58:46.799Z,100781.31
2018-10-09T12:01:13.558Z,100778.94
2018-10-09T12:03:40.508Z,100774.02
2018-10-09T12:06:07.447Z,100763.45
2018-10-09T12:08:34.387Z,100774.31
2018-10-09T12:11:01.647Z,100772.73
2018-10-09T12:13:28.579Z,100771.50
2018-10-09T12:15:55.613Z,100770.22
2018-10-09T12:18:22.470Z,100775.86
2018-10-09T12:20:49.423Z,100768.28
2018-10-09T12:23:16.446Z,100765.70
2018-10-09T12:25:43.323Z,100763.81
2018-10-09T12:28:10.266Z,100764.94
2018-10-09T12:30:37.199Z,100762.55
2018-10-09T12:33:04.243Z,100762.23
2018-10-09T12:35:31.087Z,100753.05
2018-10-09T12:37:58.027Z,100753.91
2018-10-09T12:40:24.868Z,100751.20
2018-10-09T12:42:51.741Z,100748.77
2018-10-09T12:45:18.858Z,100750.64
2018-10-09T12:47:45.723Z,100750.05
2018-10-09T12:50:12.659Z,100743.62
2018-10-09T12:52:39.595Z,100740.62
2018-10-09T12:55:07.075Z,100734.88
2018-10-09T12:57:34.006Z,100737.27
2018-10-09T13:00:00.959Z,100734.73
2018-10-09T13:02:27.900Z,100735.14
2018-10-09T13:04:54.846Z,100735.39
2018-10-09T13:07:21.809Z,100730.02
2018-10-09T13:09:48.747Z,100728.73
2018-10-09T13:12:15.675Z,100731.80
2018-10-09T13:14:42.635Z,100733.42
2018-10-09T13:17:09.635Z,100732.30
2018-10-09T13:19:36.510Z,100733.06
2018-10-09T13:22:03.769Z,100733.84
2018-10-09T13:24:30.403Z,100734.88
2018-10-09T13:26:57.355Z,100728.84
2018-10-09T13:29:24.295Z,100724.00
2018-10-09T13:31:51.230Z,100736.20
2018-10-09T13:34:18.799Z,100729.13
2018-10-09T13:36:45.675Z,100735.85
2018-10-09T13:39:12.582Z,100733.70
2018-10-09T13:41:39.524Z,100728.72
2018-10-09T13:44:06.798Z,100718.94
2018-10-09T13:46:33.624Z,100710.06
2018-10-09T13:49:00.563Z,100706.80
2018-10-09T13:51:27.514Z,100706.83
2018-10-09T13:53:54.446Z,100709.38
2018-10-09T13:56:21.390Z,100699.28
2018-10-09T13:58:48.355Z,100700.52
2018-10-09T14:01:15.308Z,100704.19
2018-10-09T14:03:42.239Z,100696.24
2018-10-09T14:06:09.222Z,100694.73
2018-10-09T14:08:36.179Z,100695.93
2018-10-09T14:11:03.079Z,100695.83
2018-10-09T14:13:30.025Z,100695.41
2018-10-09T14:15:56.966Z,100698.06
2018-10-09T14:18:23.922Z,100683.62
2018-10-09T14:20:50.871Z,100689.73
2018-10-09T14:23:17.887Z,100675.98
2018-10-09T14:25:44.739Z,100686.44
2018-10-09T14:28:11.686Z,100679.22
2018-10-09T14:30:38.624Z,100674.73
2018-10-09T14:33:05.590Z,100674.59
2018-10-09T14:35:32.523Z,100675.02
2018-10-09T14:37:59.451Z,100672.88
2018-10-09T14:40:26.399Z,100669.67
2018-10-09T14:42:53.347Z,100663.45
2018-10-09T14:45:20.435Z,100656.95
2018-10-09T14:47:47.342Z,100654.21
2018-10-09T14:50:14.278Z,100649.25
2018-10-09T14:52:41.226Z,100656.89
2018-10-09T14:55:08.178Z,100651.72
2018-10-09T14:57:35.160Z,100656.77
2018-10-09T15:00:02.128Z,100648.73
2018-10-09T15:02:29.019Z,100646.69
2018-10-09T15:04:55.951Z,100649.67
2018-10-09T15:07:22.909Z,100648.31
2018-10-09T15:09:49.848Z,100657.41
2018-10-09T15:12:16.798Z,100653.61
2018-10-09T15:14:43.781Z,100653.73
2018-10-09T15:17:10.738Z,100659.17
2018-10-09T15:19:37.623Z,100658.36
2018-10-09T15:22:04.479Z,100658.27
2018-10-09T15:24:31.431Z,100656.11
2018-10-09T15:26:58.375Z,100650.81
2018-10-09T15:29:25.326Z,100649.44
2018-10-09T15:31:52.257Z,100654.01
2018-10-09T15:34:19.199Z,100643.72
2018-10-09T15:36:46.297Z,100643.51
2018-10-09T15:39:13.210Z,100644.16
2018-10-09T15:41:40.399Z,100644.50
2018-10-09T15:44:07.394Z,100645.44
2018-10-09T15:46:34.428Z,100652.76
2018-10-09T15:51:28.923Z,100657.73
2018-10-09T15:53:58.099Z,100655.50
2018-10-09T15:56:25.042Z,100655.17
2018-10-09T15:59:45.363Z,100652.31
2018-10-09T16:02:12.369Z,100653.16
2018-10-09T16:04:39.275Z,100658.25
2018-10-09T16:07:06.392Z,100653.02
2018-10-09T16:09:33.311Z,100661.56
2018-10-09T16:12:00.224Z,100660.51
2018-10-09T16:14:27.138Z,100663.34
2018-10-09T16:16:54.198Z,100664.79
2018-10-09T16:19:21.155Z,100666.42
2018-10-09T16:21:48.144Z,100664.33
2018-10-09T16:24:15.036Z,100667.66
2018-10-09T16:26:41.979Z,100668.20
2018-10-09T16:29:09.124Z,100667.73
2018-10-09T16:31:36.092Z,100667.77
2018-10-09T16:34:03.015Z,100667.91
2018-10-09T16:36:29.954Z,100667.42
2018-10-09T16:38:56.968Z,100669.41
2018-10-09T16:41:23.842Z,100672.22
2018-10-09T16:43:50.829Z,100667.39
2018-10-09T16:46:17.850Z,100670.94
2018-10-09T16:48:44.783Z,100672.98
2018-10-09T16:51:11.719Z,100671.56
2018-10-09T16:53:38.679Z,100675.16
2018-10-09T16:56:05.646Z,100670.71
2018-10-09T16:58:32.567Z,100674.05
2018-10-09T17:00:59.507Z,100679.58
2018-10-09T17:03:26.454Z,100676.86
2018-10-09T17:05:53.404Z,100680.64
2018-10-09T17:08:21.271Z,100683.83
2018-10-09T17:10:48.208Z,100681.39
2018-10-09T17:13:15.184Z,100693.71
2018-10-09T17:15:42.211Z,100693.67
2018-10-09T17:18:09.050Z,100699.78
2018-10-09T17:20:35.988Z,100699.64
2018-10-09T17:23:02.975Z,100698.37
2018-10-09T17:25:29.886Z,100707.03
2018-10-09T17:27:56.851Z,100702.42
2018-10-09T17:30:23.839Z,100704.58
2018-10-09T17:32:50.727Z,100704.27
2018-10-09T17:35:17.745Z,100699.86
2018-10-09T17:37:50.796Z,100702.80
2018-10-09T17:40:17.696Z,100706.16
2018-10-09T17:42:44.647Z,100700.27
2018-10-09T17:45:11.590Z,100701.30
2018-10-09T17:47:38.777Z,100702.94
2018-10-09T17:50:06.127Z,100704.72
2018-10-09T17:52:33.083Z,100708.68
2018-10-09T17:54:59.983Z,100711.23
2018-10-09T17:57:26.923Z,100708.19
2018-10-09T17:59:53.865Z,100711.00
2018-10-09T18:02:20.810Z,100714.95
2018-10-09T18:04:47.753Z,100712.94
2018-10-09T18:07:14.694Z,100714.75
2018-10-09T18:09:41.661Z,100713.05
2018-10-09T18:12:08.633Z,100720.92
2018-10-09T18:14:35.577Z,100718.94
2018-10-09T18:17:02.478Z,100713.77
2018-10-09T18:19:29.474Z,100714.75
2018-10-09T18:21:56.375Z,100712.40
2018-10-09T18:24:23.306Z,100719.06
2018-10-09T18:26:50.327Z,100721.86
2018-10-09T18:29:17.267Z,100725.80
2018-10-09T18:31:44.142Z,100725.92
2018-10-09T18:34:11.099Z,100723.59
2018-10-09T18:36:38.134Z,100718.04
2018-10-09T18:39:09.190Z,100720.05
2018-10-09T18:41:36.337Z,100724.36
2018-10-09T18:44:03.095Z,100725.34
2018-10-09T18:46:30.023Z,100716.66
2018-10-09T18:48:56.954Z,100720.77
2018-10-09T18:51:23.972Z,100717.84
2018-10-09T18:53:50.846Z,100722.78
2018-10-09T18:56:17.795Z,100719.78
2018-10-09T18:58:44.804Z,100723.09
2018-10-09T19:01:11.700Z,100718.47
2018-10-09T19:03:38.639Z,100714.02
2018-10-09T19:06:05.570Z,100704.19
2018-10-09T19:08:32.518Z,100707.31
2018-10-09T19:10:59.514Z,100713.20
2018-10-09T19:13:26.411Z,100707.63
2018-10-09T19:15:53.354Z,100713.05
2018-10-09T19:18:20.305Z,100715.05
2018-10-09T19:20:47.251Z,100716.86
2018-10-09T19:23:14.191Z,100720.47
2018-10-09T19:25:41.145Z,100718.47
2018-10-09T19:28:08.487Z,100718.49
2018-10-09T19:30:35.427Z,100719.16
2018-10-09T19:33:02.391Z,100721.77
2018-10-09T19:35:29.363Z,100726.00
2018-10-09T19:37:56.287Z,100726.17
2018-10-09T19:40:23.215Z,100736.49
2018-10-09T19:42:50.155Z,100736.16
2018-10-09T19:45:17.106Z,100734.53
2018-10-09T19:47:44.051Z,100738.32
2018-10-09T19:50:10.995Z,100739.31
2018-10-09T19:52:37.947Z,100744.72
2018-10-09T19:55:04.970Z,100745.05
2018-10-09T19:57:31.942Z,100749.64
2018-10-09T19:59:58.878Z,100743.42
2018-10-09T20:02:25.827Z,100733.92
2018-10-09T20:04:52.758Z,100745.73
2018-10-09T20:07:19.615Z,100751.29
2018-10-09T20:09:46.543Z,100756.56
2018-10-09T20:12:13.495Z,100758.14
2018-10-09T20:14:40.453Z,100757.47
2018-10-09T20:17:07.391Z,100751.83
2018-10-09T20:19:34.333Z,100754.52
2018-10-09T20:22:01.272Z,100753.05
2018-10-09T20:24:28.237Z,100756.67
2018-10-09T20:26:55.166Z,100762.53
2018-10-09T20:29:22.111Z,100758.58
2018-10-09T20:31:49.043Z,100764.27
2018-10-09T20:34:15.894Z,100769.02
2018-10-09T20:36:42.839Z,100761.82
2018-10-09T20:39:09.778Z,100763.58
2018-10-09T20:41:36.731Z,100765.70
2018-10-09T20:44:03.674Z,100762.27
2018-10-09T20:46:30.618Z,100764.27
2018-10-09T20:48:57.563Z,100765.25
2018-10-09T20:51:24.515Z,100761.65
2018-10-09T20:53:51.451Z,100761.93
2018-10-09T20:56:18.391Z,100763.89
2018-10-09T20:58:45.243Z,100767.81
2018-10-09T21:01:12.182Z,100766.67
2018-10-09T21:03:39.047Z,100765.14
2018-10-09T21:06:06.036Z,100761.28
2018-10-09T21:08:32.910Z,100766.54
2018-10-09T21:10:59.766Z,100766.77
2018-10-09T21:13:26.706Z,100769.97
2018-10-09T21:15:53.658Z,100763.78
2018-10-09T21:18:20.598Z,100764.30
2018-10-09T21:20:47.546Z,100763.33
2018-10-09T21:23:14.482Z,100762.20
2018-10-09T21:25:41.427Z,100758.06
2018-10-09T21:28:08.572Z,100758.67
2018-10-09T21:30:35.523Z,100762.60
2018-10-09T21:33:02.490Z,100759.50
2018-10-09T21:35:29.415Z,100754.73
2018-10-09T21:37:56.403Z,100760.45
2018-10-09T21:40:23.302Z,100754.23
2018-10-09T21:42:50.274Z,100751.77
2018-10-09T21:45:17.207Z,100750.44
2018-10-09T21:47:50.222Z,100748.80
2018-10-09T21:50:17.134Z,100748.14
2018-10-09T21:52:44.092Z,100747.75
2018-10-09T21:55:11.014Z,100749.69
2018-10-09T21:57:37.979Z,100744.95
2018-10-09T22:00:04.902Z,100744.55
2018-10-09T22:02:31.870Z,100739.80
2018-10-09T22:04:58.804Z,100730.89
2018-10-09T22:07:25.734Z,100734.17
2018-10-09T22:09:52.705Z,100733.30
2018-10-09T22:12:19.674Z,100730.66
2018-10-09T22:14:46.587Z,100733.19
2018-10-09T22:17:13.514Z,100732.09
2018-10-09T22:19:40.590Z,100722.13
2018-10-09T22:22:07.520Z,100722.25
2018-10-09T22:24:34.603Z,100717.90
2018-10-09T22:27:01.415Z,100715.91
2018-10-09T22:29:28.370Z,100718.37
2018-10-09T22:31:55.305Z,100724.53
2018-10-09T22:34:22.237Z,100721.41
2018-10-09T22:36:49.176Z,100722.09
2018-10-09T22:39:16.023Z,100717.84
2018-10-09T22:41:42.862Z,100723.52
2018-10-09T22:44:09.823Z,100721.47
2018-10-09T22:46:36.755Z,100724.63
2018-10-09T22:49:03.703Z,100724.22
2018-10-09T22:51:30.648Z,100726.91
2018-10-09T22:53:57.591Z,100725.98
2018-10-09T22:56:24.535Z,100729.02
2018-10-09T22:58:51.483Z,100724.34
2018-10-09T23:01:18.427Z,100725.48
2018-10-09T23:03:45.387Z,100726.14
2018-10-09T23:06:12.306Z,100715.37
2018-10-09T23:08:39.291Z,100718.16
2018-10-09T23:11:06.806Z,100715.30
2018-10-09T23:13:33.650Z,100716.26
2018-10-09T23:16:00.494Z,100722.15
2018-10-09T23:18:27.567Z,100715.95
2018-10-09T23:20:54.486Z,100718.56
2018-10-09T23:23:21.335Z,100721.67
2018-10-09T23:25:48.310Z,100714.55
2018-10-09T23:28:15.217Z,100712.91
2018-10-09T23:30:42.075Z,100715.77
2018-10-09T23:33:09.020Z,100714.11
2018-10-09T23:35:35.951Z,100717.49
2018-10-09T23:38:02.794Z,100712.05
2018-10-09T23:40:29.646Z,100709.64
2018-10-09T23:42:56.625Z,100702.86
2018-10-09T23:45:23.539Z,100698.13
2018-10-09T23:48:01.426Z,100705.39
2018-10-09T23:50:28.295Z,100697.83
2018-10-09T23:52:55.218Z,100696.64
2018-10-09T23:55:22.175Z,100693.63
2018-10-09T23:57:49.110Z,100698.19
